createdAt,value
2023-03-21T00:00:57.288Z,11.49
2023-03-21T00:03:24.153Z,11.60
2023-03-21T00:05:53.945Z,11.58
2023-03-21T00:08:23.351Z,11.61
2023-03-21T00:11:01.289Z,11.60
2023-03-21T00:13:32.649Z,11.60
2023-03-21T00:16:18.774Z,11.62
2023-03-21T00:18:52.660Z,11.63
2023-03-21T00:21:41.068Z,11.64
2023-03-21T00:24:08.281Z,11.69
2023-03-21T00:26:35.725Z,11.58
2023-03-21T00:29:04.938Z,11.71
2023-03-21T00:31:31.723Z,11.72
2023-03-21T00:33:58.377Z,11.76
2023-03-21T00:36:26.193Z,11.66
2023-03-21T00:38:53.273Z,11.75
2023-03-21T00:41:39.242Z,11.80
2023-03-21T00:44:08.197Z,11.82
2023-03-21T00:46:44.044Z,11.83
2023-03-21T00:49:20.983Z,11.83
2023-03-21T00:51:51.329Z,11.80
2023-03-21T00:54:20.696Z,11.85
2023-03-21T00:56:49.611Z,11.86
2023-03-21T00:59:16.750Z,11.86
2023-03-21T01:01:44.030Z,11.84
2023-03-21T01:04:14.712Z,11.62
2023-03-21T01:06:42.938Z,11.80
2023-03-21T01:09:19.491Z,11.77
2023-03-21T01:11:49.426Z,11.73
2023-03-21T01:14:22.903Z,11.67
2023-03-21T01:16:54.082Z,11.65
2023-03-21T01:19:40.664Z,11.62
2023-03-21T01:22:13.214Z,11.58
2023-03-21T01:24:53.887Z,11.60
2023-03-21T01:27:26.042Z,11.56
2023-03-21T01:29:55.336Z,11.50
2023-03-21T01:32:21.963Z,11.49
2023-03-21T01:34:51.648Z,11.34
2023-03-21T01:37:20.707Z,11.55
2023-03-21T01:39:47.317Z,11.52
2023-03-21T01:42:17.153Z,11.53
2023-03-21T01:44:57.943Z,11.51
2023-03-21T01:47:25.660Z,11.47
2023-03-21T01:49:59.323Z,11.34
2023-03-21T01:52:37.619Z,11.35
2023-03-21T01:55:12.230Z,11.32
2023-03-21T01:58:02.377Z,11.31
2023-03-21T02:00:32.916Z,11.26
2023-03-21T02:03:13.673Z,11.29
2023-03-21T02:05:56.225Z,11.27
2023-03-21T02:08:30.545Z,11.26
2023-03-21T02:11:05.414Z,11.27
2023-03-21T02:13:32.074Z,11.27
2023-03-21T02:15:58.645Z,11.27
2023-03-21T02:18:34.299Z,11.27
2023-03-21T02:21:48.425Z,11.27
2023-03-21T02:24:29.959Z,11.28
2023-03-21T02:27:08.922Z,11.21
2023-03-21T02:29:48.525Z,11.30
2023-03-21T02:32:38.022Z,11.31
2023-03-21T02:35:23.660Z,11.33
2023-03-21T02:38:01.117Z,11.27
2023-03-21T02:40:46.697Z,11.38
2023-03-21T02:43:23.704Z,11.37
2023-03-21T02:45:55.453Z,11.38
2023-03-21T02:48:41.085Z,11.38
2023-03-21T02:51:21.181Z,11.35
2023-03-21T02:54:20.004Z,11.38
2023-03-21T02:56:41.584Z,11.22
2023-03-21T02:59:08.954Z,11.39
2023-03-21T03:01:35.801Z,11.44
2023-03-21T03:04:04.971Z,11.41
2023-03-21T03:06:49.252Z,11.27
2023-03-21T03:09:28.495Z,11.34
2023-03-21T03:12:24.137Z,11.40
2023-03-21T03:15:04.426Z,11.40
2023-03-21T03:17:58.798Z,11.38
2023-03-21T03:20:25.472Z,11.37
2023-03-21T03:23:04.589Z,11.35
2023-03-21T03:25:49.144Z,11.35
2023-03-21T03:28:20.418Z,11.33
2023-03-21T03:31:07.073Z,11.30
2023-03-21T03:33:38.555Z,11.26
2023-03-21T03:36:09.426Z,11.00
2023-03-21T03:38:41.721Z,11.17
2023-03-21T03:41:19.544Z,11.13
2023-03-21T03:43:51.273Z,11.14
2023-03-21T03:46:53.253Z,11.07
2023-03-21T03:49:26.637Z,11.02
2023-03-21T03:51:59.111Z,10.97
2023-03-21T03:54:37.150Z,10.95
2023-03-21T03:57:05.443Z,10.95
2023-03-21T03:59:36.042Z,10.93
2023-03-21T04:02:03.510Z,10.84
2023-03-21T04:04:31.953Z,10.82
2023-03-21T04:07:03.626Z,10.84
2023-03-21T04:09:43.657Z,10.81
2023-03-21T04:12:15.514Z,10.80
2023-03-21T04:14:47.216Z,10.82
2023-03-21T04:17:14.866Z,10.77
2023-03-21T04:19:45.691Z,10.85
2023-03-21T04:22:12.983Z,10.84
2023-03-21T04:24:40.040Z,10.65
2023-03-21T04:27:06.781Z,10.82
2023-03-21T04:29:33.766Z,10.82
2023-03-21T04:32:01.473Z,10.80
2023-03-21T04:34:28.437Z,10.68
2023-03-21T04:36:58.303Z,10.80
2023-03-21T04:39:27.292Z,10.79
2023-03-21T04:41:54.039Z,10.79
2023-03-21T04:44:21.063Z,10.66
2023-03-21T04:46:47.723Z,10.82
2023-03-21T04:49:14.324Z,10.82
2023-03-21T04:51:44.064Z,10.72
2023-03-21T04:56:38.578Z,10.83
2023-03-21T04:59:14.584Z,10.85
2023-03-21T05:01:43.725Z,10.87
2023-03-21T05:04:11.979Z,10.90
2023-03-21T05:06:39.459Z,10.92
2023-03-21T05:09:07.134Z,10.83
2023-03-21T05:11:39.698Z,10.96
2023-03-21T05:14:07.981Z,10.96
2023-03-21T05:16:36.528Z,10.93
2023-03-21T05:19:03.927Z,10.97
2023-03-21T05:21:41.794Z,10.96
2023-03-21T05:24:12.346Z,10.95
2023-03-21T05:26:40.597Z,11.00
2023-03-21T05:29:09.923Z,10.98
2023-03-21T05:31:39.333Z,10.89
2023-03-21T05:34:10.507Z,10.87
2023-03-21T05:36:39.830Z,10.98
2023-03-21T05:39:06.831Z,11.00
2023-03-21T05:41:33.655Z,10.96
2023-03-21T05:44:00.942Z,11.00
2023-03-21T05:46:27.937Z,10.99
2023-03-21T05:48:57.066Z,10.98
2023-03-21T05:51:26.020Z,10.86
2023-03-21T05:53:52.819Z,10.92
2023-03-21T05:56:24.272Z,10.91
2023-03-21T05:58:51.981Z,11.00
2023-03-21T06:01:19.007Z,11.02
2023-03-21T06:03:45.982Z,11.04
2023-03-21T06:06:12.834Z,10.99
2023-03-21T06:08:39.652Z,11.02
2023-03-21T06:11:18.133Z,11.05
2023-03-21T06:13:44.797Z,11.06
2023-03-21T06:16:11.492Z,11.06
2023-03-21T06:18:38.170Z,11.06
2023-03-21T06:21:04.910Z,11.02
2023-03-21T06:23:31.711Z,10.95
2023-03-21T06:26:01.425Z,11.02
2023-03-21T06:28:28.133Z,10.93
2023-03-21T06:30:54.761Z,11.15
2023-03-21T06:33:23.524Z,11.11
2023-03-21T06:35:55.282Z,10.95
2023-03-21T06:38:25.779Z,11.19
2023-03-21T06:40:52.451Z,11.19
2023-03-21T06:43:21.580Z,11.26
2023-03-21T06:45:48.245Z,11.29
2023-03-21T06:48:15.093Z,11.27
2023-03-21T06:50:41.914Z,11.31
2023-03-21T06:53:10.935Z,11.31
2023-03-21T06:55:38.275Z,11.32
2023-03-21T06:58:05.093Z,11.31
2023-03-21T07:00:34.141Z,11.32
2023-03-21T07:03:03.357Z,11.34
2023-03-21T07:05:30.007Z,11.09
2023-03-21T07:08:01.297Z,11.40
2023-03-21T07:10:28.057Z,11.45
2023-03-21T07:12:54.739Z,11.30
2023-03-21T07:15:21.979Z,11.41
2023-03-21T07:17:48.629Z,11.56
2023-03-21T07:20:15.324Z,11.55
2023-03-21T07:22:42.083Z,11.68
2023-03-21T07:25:10.060Z,11.71
2023-03-21T07:27:41.062Z,11.82
2023-03-21T07:30:09.787Z,11.89
2023-03-21T07:32:38.077Z,11.95
2023-03-21T07:35:05.935Z,11.96
2023-03-21T07:37:32.706Z,12.03
2023-03-21T07:39:59.484Z,12.05
2023-03-21T07:42:28.349Z,12.06
2023-03-21T07:44:55.460Z,12.08
2023-03-21T07:47:22.305Z,12.04
2023-03-21T07:49:51.281Z,12.06
2023-03-21T07:52:17.952Z,12.05
2023-03-21T07:54:47.046Z,12.25
2023-03-21T07:57:13.946Z,12.23
2023-03-21T07:59:40.973Z,12.31
2023-03-21T08:02:07.677Z,12.37
2023-03-21T08:04:36.822Z,12.37
2023-03-21T08:07:08.338Z,12.42
2023-03-21T08:09:35.372Z,12.53
2023-03-21T08:12:04.445Z,12.62
2023-03-21T08:14:31.118Z,12.68
2023-03-21T08:17:00.413Z,12.77
2023-03-21T08:19:27.119Z,12.91
2023-03-21T08:21:55.970Z,12.77
2023-03-21T08:24:22.690Z,12.96
2023-03-21T08:26:49.483Z,12.92
2023-03-21T08:29:16.330Z,12.92
2023-03-21T08:31:45.425Z,12.93
2023-03-21T08:34:14.410Z,12.89
2023-03-21T08:36:44.312Z,12.87
2023-03-21T08:39:11.441Z,12.80
2023-03-21T08:41:38.736Z,12.87
2023-03-21T08:44:09.715Z,12.89
2023-03-21T08:46:36.904Z,12.87
2023-03-21T08:49:03.664Z,12.89
2023-03-21T08:51:31.836Z,12.89
2023-03-21T08:53:58.510Z,12.80
2023-03-21T08:56:25.435Z,12.87
2023-03-21T08:58:52.092Z,12.86
2023-03-21T09:01:19.041Z,12.77
2023-03-21T09:03:45.921Z,12.99
2023-03-21T09:06:14.376Z,13.04
2023-03-21T09:08:42.192Z,13.02
2023-03-21T09:11:10.117Z,13.19
2023-03-21T09:13:39.089Z,13.22
2023-03-21T09:16:06.231Z,13.29
2023-03-21T09:18:47.348Z,13.35
2023-03-21T09:21:18.548Z,13.50
2023-03-21T09:23:47.191Z,13.56
2023-03-21T09:26:14.359Z,13.62
2023-03-21T09:28:43.850Z,13.72
2023-03-21T09:31:12.416Z,13.62
2023-03-21T09:33:43.256Z,14.04
2023-03-21T09:36:15.545Z,14.18
2023-03-21T09:38:46.128Z,14.26
2023-03-21T09:41:19.108Z,14.36
2023-03-21T09:43:58.048Z,14.47
2023-03-21T09:46:33.986Z,14.49
2023-03-21T09:49:10.018Z,14.59
2023-03-21T09:51:43.075Z,14.68
2023-03-21T09:54:48.905Z,14.75
2023-03-21T09:57:40.222Z,14.64
2023-03-21T10:00:16.385Z,14.74
2023-03-21T10:02:49.706Z,14.66
2023-03-21T10:05:30.577Z,14.73
2023-03-21T10:08:04.785Z,14.73
2023-03-21T10:10:39.882Z,14.67
2023-03-21T10:13:15.892Z,14.69
2023-03-21T10:15:45.201Z,14.65
2023-03-21T10:18:23.158Z,14.55
2023-03-21T10:20:51.618Z,14.44
2023-03-21T10:23:22.670Z,14.77
2023-03-21T10:25:55.171Z,14.65
2023-03-21T10:28:29.131Z,14.81
2023-03-21T10:31:00.858Z,14.84
2023-03-21T10:33:34.050Z,14.76
2023-03-21T10:36:05.398Z,14.95
2023-03-21T10:38:35.055Z,15.14
2023-03-21T10:41:04.080Z,15.11
2023-03-21T10:43:34.921Z,15.20
2023-03-21T10:46:28.129Z,15.26
2023-03-21T10:48:55.081Z,15.26
2023-03-21T10:51:27.035Z,15.20
2023-03-21T10:54:01.516Z,15.18
2023-03-21T10:56:35.795Z,15.21
2023-03-21T10:59:03.686Z,15.19
2023-03-21T11:01:38.074Z,15.04
2023-03-21T11:04:15.716Z,15.12
2023-03-21T11:06:48.117Z,15.19
2023-03-21T11:09:25.108Z,15.10
2023-03-21T11:12:10.003Z,15.24
2023-03-21T11:14:49.665Z,15.31
2023-03-21T11:17:23.679Z,15.41
2023-03-21T11:19:54.905Z,15.52
2023-03-21T11:22:24.566Z,15.52
2023-03-21T11:24:57.773Z,15.71
2023-03-21T11:27:29.468Z,15.73
2023-03-21T11:29:58.093Z,15.72
2023-03-21T11:32:30.663Z,15.77
2023-03-21T11:35:01.486Z,15.67
2023-03-21T11:37:32.110Z,15.78
2023-03-21T11:40:18.656Z,15.69
2023-03-21T11:42:49.766Z,15.78
2023-03-21T11:45:23.152Z,15.75
2023-03-21T11:47:51.803Z,15.70
2023-03-21T11:50:24.416Z,15.64
2023-03-21T11:53:07.402Z,15.50
2023-03-21T11:55:42.883Z,15.48
2023-03-21T11:58:14.573Z,15.42
2023-03-21T12:00:57.361Z,15.37
2023-03-21T12:03:47.386Z,15.39
2023-03-21T12:06:37.743Z,15.40
2023-03-21T12:09:07.248Z,15.44
2023-03-21T12:11:59.380Z,15.29
2023-03-21T12:15:06.323Z,15.61
2023-03-21T12:17:36.104Z,15.70
2023-03-21T12:20:17.756Z,15.72
2023-03-21T12:23:22.404Z,15.79
2023-03-21T12:26:00.968Z,15.78
2023-03-21T12:28:33.746Z,15.66
2023-03-21T12:31:18.032Z,15.71
2023-03-21T12:34:13.202Z,15.59
2023-03-21T12:37:11.069Z,15.74
2023-03-21T12:39:43.864Z,15.78
2023-03-21T12:42:25.602Z,15.85
2023-03-21T12:45:16.730Z,15.85
2023-03-21T12:47:58.124Z,15.88
2023-03-21T12:50:36.896Z,15.83
2023-03-21T12:53:26.237Z,15.71
2023-03-21T12:55:56.115Z,15.49
2023-03-21T12:58:28.370Z,15.49
2023-03-21T13:00:58.444Z,15.36
2023-03-21T13:03:39.112Z,15.29
2023-03-21T13:06:09.602Z,15.08
2023-03-21T13:08:52.836Z,15.10
2023-03-21T13:11:25.385Z,15.09
2023-03-21T13:14:15.469Z,15.25
2023-03-21T13:16:52.387Z,15.32
2023-03-21T13:19:22.833Z,15.43
2023-03-21T13:22:11.781Z,15.49
2023-03-21T13:24:48.825Z,15.38
2023-03-21T13:27:27.570Z,15.45
2023-03-21T13:30:01.010Z,15.48
2023-03-21T13:32:39.663Z,15.65
2023-03-21T13:35:10.023Z,15.72
2023-03-21T13:37:42.125Z,15.68
2023-03-21T13:40:42.970Z,15.74
2023-03-21T13:43:47.348Z,15.69
2023-03-21T13:46:46.947Z,15.66
2023-03-21T13:49:32.527Z,15.60
2023-03-21T13:52:04.490Z,15.31
2023-03-21T13:54:34.421Z,15.52
2023-03-21T13:57:05.684Z,15.50
2023-03-21T13:59:35.482Z,15.52
2023-03-21T14:02:20.526Z,15.54
2023-03-21T14:05:04.229Z,15.57
2023-03-21T14:07:36.882Z,15.57
2023-03-21T14:10:08.938Z,15.49
2023-03-21T14:12:42.582Z,15.58
2023-03-21T14:15:19.752Z,15.57
2023-03-21T14:17:56.605Z,15.53
2023-03-21T14:20:38.838Z,15.50
2023-03-21T14:23:07.783Z,15.46
2023-03-21T14:25:47.323Z,15.47
2023-03-21T14:28:21.560Z,15.35
2023-03-21T14:30:54.660Z,15.54
2023-03-21T14:33:26.109Z,15.53
2023-03-21T14:35:56.017Z,15.54
2023-03-21T14:38:29.321Z,15.49
2023-03-21T14:40:58.436Z,15.40
2023-03-21T14:43:30.868Z,15.42
2023-03-21T14:46:01.333Z,15.41
2023-03-21T14:48:33.416Z,15.37
2023-03-21T14:51:10.911Z,15.47
2023-03-21T14:53:41.373Z,15.45
2023-03-21T14:56:23.325Z,15.42
2023-03-21T14:58:50.772Z,15.47
2023-03-21T15:01:33.329Z,15.46
2023-03-21T15:04:04.318Z,15.29
2023-03-21T15:06:31.051Z,15.48
2023-03-21T15:09:00.160Z,15.50
2023-03-21T15:11:35.423Z,15.52
2023-03-21T15:14:10.347Z,15.35
2023-03-21T15:16:38.093Z,15.49
2023-03-21T15:19:05.651Z,15.26
2023-03-21T15:21:37.965Z,15.39
2023-03-21T15:24:22.523Z,15.34
2023-03-21T15:26:50.935Z,15.19
2023-03-21T15:29:18.517Z,15.25
2023-03-21T15:31:50.304Z,15.24
2023-03-21T15:34:30.106Z,14.91
2023-03-21T15:37:09.231Z,15.18
2023-03-21T15:39:36.516Z,15.13
2023-03-21T15:42:21.316Z,15.01
2023-03-21T15:44:51.420Z,14.94
2023-03-21T15:47:39.324Z,14.96
2023-03-21T15:50:37.895Z,14.81
2023-03-21T15:53:14.575Z,14.85
2023-03-21T15:55:48.459Z,14.78
2023-03-21T15:58:22.413Z,14.76
2023-03-21T16:00:55.807Z,14.51
2023-03-21T16:03:35.161Z,14.62
2023-03-21T16:06:22.144Z,14.61
2023-03-21T16:09:08.876Z,14.56
2023-03-21T16:11:41.516Z,14.53
2023-03-21T16:14:08.967Z,14.26
2023-03-21T16:16:36.425Z,14.39
2023-03-21T16:19:03.393Z,14.40
2023-03-21T16:21:32.073Z,14.36
2023-03-21T16:23:58.859Z,14.45
2023-03-21T16:26:30.822Z,14.47
2023-03-21T16:28:58.045Z,14.43
2023-03-21T16:31:27.805Z,14.39
2023-03-21T16:33:57.553Z,14.31
2023-03-21T16:36:29.315Z,14.30
2023-03-21T16:38:56.967Z,14.20
2023-03-21T16:41:27.647Z,14.25
2023-03-21T16:43:57.167Z,14.07
2023-03-21T16:46:27.741Z,13.78
2023-03-21T16:48:57.038Z,13.97
2023-03-21T16:51:44.077Z,14.02
2023-03-21T16:54:13.331Z,13.94
2023-03-21T16:56:44.219Z,13.86
2023-03-21T16:59:14.048Z,13.88
2023-03-21T17:01:41.944Z,13.74
2023-03-21T17:04:09.215Z,13.82
2023-03-21T17:06:44.825Z,13.80
2023-03-21T17:09:14.456Z,13.74
2023-03-21T17:11:41.717Z,13.80
2023-03-21T17:14:13.869Z,13.78
2023-03-21T17:16:43.082Z,13.64
2023-03-21T17:19:19.821Z,13.77
2023-03-21T17:21:51.126Z,13.74
2023-03-21T17:24:17.975Z,13.73
2023-03-21T17:26:44.761Z,13.71
2023-03-21T17:29:14.323Z,13.62
2023-03-21T17:31:42.539Z,13.50
2023-03-21T17:34:09.805Z,13.54
2023-03-21T17:36:39.930Z,13.47
2023-03-21T17:39:09.442Z,13.08
2023-03-21T17:41:36.370Z,13.29
2023-03-21T17:44:03.469Z,13.04
2023-03-21T17:46:37.026Z,12.97
2023-03-21T17:49:04.944Z,13.08
2023-03-21T17:51:33.179Z,13.02
2023-03-21T17:54:01.015Z,12.96
2023-03-21T17:56:34.634Z,12.91
2023-03-21T17:59:07.527Z,12.82
2023-03-21T18:01:35.597Z,12.69
2023-03-21T18:04:04.966Z,12.72
2023-03-21T18:06:34.212Z,12.67
2023-03-21T18:09:10.992Z,12.53
2023-03-21T18:11:39.419Z,12.40
2023-03-21T18:14:15.735Z,12.48
2023-03-21T18:16:43.855Z,12.41
2023-03-21T18:19:13.051Z,12.37
2023-03-21T18:21:45.734Z,12.28
2023-03-21T18:24:16.014Z,12.16
2023-03-21T18:26:43.917Z,12.08
2023-03-21T18:30:15.798Z,12.11
2023-03-21T18:32:07.909Z,11.89
2023-03-21T18:34:38.742Z,12.02
2023-03-21T18:37:10.029Z,11.81
2023-03-21T18:39:38.622Z,11.94
2023-03-21T18:42:06.520Z,11.85
2023-03-21T18:44:37.525Z,11.63
2023-03-21T18:47:04.989Z,11.85
2023-03-21T18:52:18.925Z,11.70
2023-03-21T18:54:46.050Z,11.79
2023-03-21T19:00:09.372Z,11.43
2023-03-21T19:02:41.929Z,11.80
2023-03-21T19:05:12.648Z,11.68
2023-03-21T19:07:39.639Z,11.62
2023-03-21T19:10:17.617Z,11.73
2023-03-21T19:12:45.978Z,11.65
2023-03-21T19:15:12.777Z,11.67
2023-03-21T19:20:31.548Z,11.65
2023-03-21T19:22:58.386Z,11.60
2023-03-21T19:25:26.098Z,11.66
2023-03-21T19:27:52.818Z,11.60
2023-03-21T19:30:21.958Z,11.70
2023-03-21T19:32:48.777Z,11.70
2023-03-21T19:35:18.760Z,11.37
2023-03-21T19:37:45.756Z,11.72
2023-03-21T19:40:12.817Z,11.64
2023-03-21T19:42:40.452Z,11.80
2023-03-21T19:45:07.857Z,11.06
2023-03-21T19:47:36.974Z,11.83
2023-03-21T19:50:43.839Z,11.84
2023-03-21T19:52:54.120Z,11.83
2023-03-21T19:55:20.930Z,11.73
2023-03-21T19:57:49.300Z,11.77
2023-03-21T20:00:17.389Z,11.85
2023-03-21T20:02:47.280Z,11.87
2023-03-21T20:05:16.302Z,11.87
2023-03-21T20:07:43.007Z,11.87
2023-03-21T20:10:12.539Z,11.90
2023-03-21T20:12:39.363Z,11.79
2023-03-21T20:15:17.346Z,11.86
2023-03-21T20:17:49.558Z,11.87
2023-03-21T20:20:18.445Z,11.88
2023-03-21T20:23:07.327Z,11.86
2023-03-21T20:25:35.179Z,11.94
2023-03-21T20:28:25.054Z,11.94
2023-03-21T20:30:51.620Z,11.95
2023-03-21T20:33:18.812Z,11.92
2023-03-21T20:36:35.624Z,11.95
2023-03-21T20:38:35.663Z,11.93
2023-03-21T20:41:04.482Z,11.78
2023-03-21T20:46:21.485Z,11.91
2023-03-21T20:48:49.805Z,11.83
2023-03-21T20:52:27.476Z,11.92
2023-03-21T20:54:07.576Z,11.79
2023-03-21T20:56:40.042Z,11.82
2023-03-21T20:59:18.741Z,11.91
2023-03-21T21:01:54.534Z,11.93
2023-03-21T21:04:22.968Z,11.92
2023-03-21T21:06:52.530Z,11.94
2023-03-21T21:09:19.279Z,11.89
2023-03-21T21:14:33.520Z,11.81
2023-03-21T21:17:15.503Z,11.95
2023-03-21T21:19:50.104Z,11.94
2023-03-21T21:22:17.558Z,11.97
2023-03-21T21:24:44.872Z,11.96
2023-03-21T21:27:12.054Z,11.89
2023-03-21T21:29:38.884Z,11.93
2023-03-21T21:32:05.593Z,11.98
2023-03-21T21:34:32.604Z,11.95
2023-03-21T21:36:59.209Z,12.01
2023-03-21T21:39:27.607Z,12.01
2023-03-21T21:41:54.345Z,11.80
2023-03-21T21:44:21.359Z,11.93
2023-03-21T21:46:48.043Z,11.73
2023-03-21T21:49:14.756Z,11.95
2023-03-21T21:51:47.776Z,11.91
2023-03-21T21:54:18.400Z,11.95
2023-03-21T21:56:48.568Z,11.95
2023-03-21T21:59:17.823Z,11.95
2023-03-21T22:01:44.523Z,11.97
2023-03-21T22:04:12.235Z,11.88
2023-03-21T22:06:38.872Z,11.98
2023-03-21T22:09:07.035Z,11.99
2023-03-21T22:11:36.419Z,12.02
2023-03-21T22:14:03.716Z,12.02
2023-03-21T22:16:30.766Z,11.91
2023-03-21T22:18:57.423Z,12.04
2023-03-21T22:21:26.518Z,12.01
2023-03-21T22:23:53.255Z,12.07
2023-03-21T22:26:19.992Z,12.03
2023-03-21T22:28:46.700Z,12.10
2023-03-21T22:31:16.099Z,12.05
2023-03-21T22:33:45.946Z,12.01
2023-03-21T22:36:13.050Z,11.96
2023-03-21T22:38:41.877Z,12.08
2023-03-21T22:41:08.620Z,12.08
2023-03-21T22:43:35.566Z,12.05
2023-03-21T22:46:06.750Z,12.12
2023-03-21T22:48:35.738Z,12.08
2023-03-21T22:51:02.437Z,12.12
2023-03-21T22:53:33.914Z,12.08
2023-03-21T22:56:00.806Z,12.11
2023-03-21T22:58:27.619Z,12.01
2023-03-21T23:00:54.371Z,12.12
2023-03-21T23:03:21.150Z,12.13
2023-03-21T23:05:55.146Z,12.19
2023-03-21T23:08:23.775Z,12.19
2023-03-21T23:10:50.764Z,12.12
2023-03-21T23:13:17.425Z,12.05
2023-03-21T23:15:44.240Z,12.16
2023-03-21T23:18:15.789Z,12.18
2023-03-21T23:20:42.868Z,12.07
2023-03-21T23:23:09.693Z,12.18
2023-03-21T23:25:39.540Z,12.13
2023-03-21T23:28:09.668Z,12.17
2023-03-21T23:30:37.803Z,12.14
2023-03-21T23:33:04.805Z,12.14
2023-03-21T23:35:34.806Z,11.99
2023-03-21T23:38:04.741Z,12.16
2023-03-21T23:40:33.746Z,12.14
2023-03-21T23:43:02.965Z,12.09
2023-03-21T23:45:32.166Z,12.13
2023-03-21T23:48:01.534Z,12.14
2023-03-21T23:50:28.198Z,12.13
2023-03-21T23:52:54.857Z,12.18
2023-03-21T23:55:23.982Z,12.17
2023-03-21T23:57:59.050Z,12.16
